Time;durP1;ratioP1;P1;durP2;ratioP2;P2;SDS_P1;SDS_P2;PMS_P1;PMS_P2;Temp;Humidity;BMP_temperature;BMP_pressure;BME280_temperature;BME280_humidity;BME280_pressure;Samples;Min_cycle;Max_cycle;Signal;HPM_P1;HPM_P2
2022/06/21 00:02:04;;;;;;;1.10;1.00;;;17.50;99.90;;;;;;5095605;28;20635;-85
2022/06/21 00:04:30;;;;;;;0.90;0.75;;;18.20;99.90;;;;;;5096780;28;20180;-85
2022/06/21 00:06:59;;;;;;;0.70;0.70;;;17.60;99.90;;;;;;5095819;28;20608;-85
2022/06/21 00:09:26;;;;;;;0.77;0.75;;;;;;;;;;5096427;28;20171;-84
2022/06/21 00:11:52;;;;;;;1.40;0.85;;;17.90;99.90;;;;;;5078613;28;20583;-85
2022/06/21 00:14:17;;;;;;;1.08;0.90;;;17.60;99.90;;;;;;5096574;28;20272;-85
2022/06/21 00:16:43;;;;;;;1.25;1.15;;;17.20;99.90;;;;;;5095163;28;20175;-85
2022/06/21 00:19:19;;;;;;;1.45;1.15;;;17.20;99.90;;;;;;5096471;28;20186;-85
2022/06/21 00:21:45;;;;;;;0.80;0.80;;;17.40;99.90;;;;;;5096100;28;20542;-85
2022/06/21 00:24:12;;;;;;;1.20;1.10;;;17.40;99.90;;;;;;5095238;28;20208;-85
2022/06/21 00:26:37;;;;;;;0.80;0.80;;;17.30;99.90;;;;;;5095065;28;20201;-85
2022/06/21 00:29:03;;;;;;;0.68;0.68;;;17.00;99.90;;;;;;5077754;28;20210;-85
2022/06/21 00:31:34;;;;;;;0.68;0.68;;;16.80;99.90;;;;;;5095066;28;20236;-85
2022/06/21 00:34:06;;;;;;;0.75;0.70;;;16.80;99.90;;;;;;5115831;28;20202;-84
2022/06/21 00:36:37;;;;;;;0.70;0.70;;;16.60;99.90;;;;;;5117036;28;20170;-85
2022/06/21 00:39:04;;;;;;;0.65;0.60;;;16.70;99.90;;;;;;5114281;28;20166;-84
2022/06/21 00:41:52;;;;;;;0.70;0.70;;;16.70;99.90;;;;;;5113300;28;20208;-83
2022/06/21 00:44:28;;;;;;;0.75;0.75;;;16.60;99.90;;;;;;5112153;28;20167;-84
2022/06/21 00:47:03;;;;;;;0.70;0.70;;;16.60;99.90;;;;;;5101442;28;20651;-85
2022/06/21 00:49:45;;;;;;;0.60;0.60;;;16.60;99.90;;;;;;5095029;28;20170;-85
2022/06/21 00:52:17;;;;;;;0.73;0.73;;;17.00;99.90;;;;;;5096025;28;20229;-85
2022/06/21 00:55:01;;;;;;;1.27;0.70;;;16.50;99.90;;;;;;5094594;28;20178;-85
2022/06/21 00:57:41;;;;;;;0.50;0.50;;;16.30;99.90;;;;;;5096178;28;20196;-84
2022/06/21 01:00:25;;;;;;;0.57;0.57;;;16.40;99.90;;;;;;5095053;28;20182;-84
2022/06/21 01:02:52;;;;;;;0.70;0.70;;;16.80;99.90;;;;;;5096087;28;20286;-85
2022/06/21 01:05:18;;;;;;;0.60;0.60;;;16.50;99.90;;;;;;5094856;28;20182;-85
2022/06/21 01:07:44;;;;;;;2.40;0.73;;;16.40;99.90;;;;;;5095780;28;20166;-84
2022/06/21 01:10:16;;;;;;;1.60;1.20;;;16.00;99.90;;;;;;5095737;28;20174;-85
2022/06/21 01:12:45;;;;;;;0.80;0.73;;;16.60;99.90;;;;;;5095622;28;20198;-85
2022/06/21 01:15:21;;;;;;;0.85;0.85;;;16.40;99.90;;;;;;5096246;28;20170;-86
2022/06/21 01:17:49;;;;;;;0.80;0.65;;;16.40;99.90;;;;;;5095635;28;20162;-86
2022/06/21 01:20:19;;;;;;;1.45;1.05;;;16.30;99.90;;;;;;5095710;28;20223;-85
2022/06/21 01:23:03;;;;;;;1.55;1.15;;;16.40;99.90;;;;;;5094279;28;20178;-86
2022/06/21 01:25:36;;;;;;;1.48;1.15;;;16.40;99.90;;;;;;5095653;28;20217;-86
2022/06/21 01:28:02;;;;;;;0.85;0.80;;;16.40;99.90;;;;;;5097351;28;20241;-85
2022/06/21 01:30:28;;;;;;;1.30;1.05;;;16.10;99.90;;;;;;5097405;28;20234;-86
2022/06/21 01:32:58;;;;;;;2.55;0.88;;;16.10;99.90;;;;;;5078862;28;20601;-85
2022/06/21 01:35:50;;;;;;;0.73;0.63;;;15.90;99.90;;;;;;5095645;28;20269;-85
2022/06/21 01:38:25;;;;;;;2.92;1.15;;;16.20;99.90;;;;;;5096097;28;20178;-85
2022/06/21 01:40:55;;;;;;;1.02;0.60;;;16.00;99.90;;;;;;5098010;28;20650;-85
2022/06/21 01:43:26;;;;;;;0.52;0.50;;;16.20;99.90;;;;;;5096967;28;20277;-84
2022/06/21 01:45:56;;;;;;;0.98;0.77;;;15.80;99.90;;;;;;5095106;28;20205;-85
2022/06/21 01:48:47;;;;;;;0.60;0.60;;;15.50;99.90;;;;;;5094143;28;20274;-85
2022/06/21 01:51:17;;;;;;;0.60;0.50;;;16.00;99.90;;;;;;5094651;28;20727;-85
2022/06/21 01:53:44;;;;;;;0.70;0.70;;;15.90;99.90;;;;;;5093244;28;20236;-87
2022/06/21 01:56:17;;;;;;;0.95;0.80;;;15.60;99.90;;;;;;5093545;28;20269;-85
2022/06/21 01:58:52;;;;;;;0.43;0.43;;;15.60;99.90;;;;;;5094746;28;20166;-86
2022/06/21 02:01:22;;;;;;;0.57;0.55;;;15.90;99.90;;;;;;5095270;28;20159;-85
2022/06/21 02:03:51;;;;;;;0.75;0.55;;;15.80;99.90;;;;;;5094403;28;20207;-87
2022/06/21 02:06:17;;;;;;;0.55;0.55;;;15.80;99.90;;;;;;5094659;28;20174;-86
2022/06/21 02:08:52;;;;;;;0.70;0.70;;;15.50;99.90;;;;;;5093121;28;20175;-86
2022/06/21 02:11:30;;;;;;;0.57;0.57;;;15.70;99.90;;;;;;5094435;28;20166;-86
2022/06/21 02:16:49;;;;;;;0.80;0.80;;;15.50;99.90;;;;;;5093681;28;20217;-85
2022/06/21 02:19:28;;;;;;;0.73;0.70;;;15.50;99.90;;;;;;5094598;28;20208;-86
2022/06/21 02:21:54;;;;;;;1.40;0.70;;;15.30;99.90;;;;;;5094551;28;20170;-86
2022/06/21 02:24:23;;;;;;;0.50;0.50;;;15.20;99.90;;;;;;5093179;28;20707;-85
2022/06/21 02:26:51;;;;;;;0.68;0.68;;;15.20;99.90;;;;;;5076414;28;20193;-86
2022/06/21 02:29:17;;;;;;;1.65;0.90;;;15.40;99.90;;;;;;5092716;28;20313;-85
2022/06/21 02:31:44;;;;;;;0.60;0.60;;;15.40;99.90;;;;;;5076071;28;20183;-86
2022/06/21 02:34:20;;;;;;;0.60;0.60;;;15.30;99.90;;;;;;5092639;28;20230;-85
2022/06/21 02:36:50;;;;;;;1.92;0.82;;;15.10;99.90;;;;;;5093984;28;20615;-87
2022/06/21 02:39:21;;;;;;;0.70;0.70;;;15.30;99.90;;;;;;5092853;28;20236;-86
2022/06/21 02:41:51;;;;;;;1.00;1.00;;;15.40;99.90;;;;;;5092645;28;20198;-86
2022/06/21 02:44:25;;;;;;;0.60;0.60;;;15.00;99.90;;;;;;5094136;28;20166;-84
2022/06/21 02:46:55;;;;;;;0.88;0.80;;;15.10;99.90;;;;;;5093952;28;20175;-86
2022/06/21 02:49:23;;;;;;;0.73;0.60;;;15.00;99.90;;;;;;5094098;28;20171;-85
2022/06/21 02:51:57;;;;;;;0.75;0.75;;;15.20;99.90;;;;;;5093809;28;20290;-86
2022/06/21 02:54:26;;;;;;;0.63;0.63;;;15.10;99.90;;;;;;5093484;28;20237;-85
2022/06/21 02:56:57;;;;;;;1.30;0.98;;;15.00;99.90;;;;;;5092387;28;20546;-86
2022/06/21 02:59:23;;;;;;;0.77;0.77;;;14.80;99.90;;;;;;5093569;28;20246;-85
2022/06/21 03:02:00;;;;;;;0.75;0.75;;;15.30;99.90;;;;;;5092818;28;20198;-87
2022/06/21 03:04:42;;;;;;;1.10;0.60;;;14.90;99.90;;;;;;5092667;28;20207;-85
2022/06/21 03:07:13;;;;;;;0.52;0.52;;;14.80;99.90;;;;;;5093563;28;20166;-85
2022/06/21 03:09:39;;;;;;;0.80;0.80;;;14.90;99.90;;;;;;5093573;28;20584;-85
2022/06/21 03:12:07;;;;;;;0.98;0.85;;;14.40;99.90;;;;;;5092130;28;20170;-85
2022/06/21 03:14:35;;;;;;;0.75;0.75;;;15.10;99.90;;;;;;5092288;28;20588;-84
2022/06/21 03:17:03;;;;;;;1.60;0.90;;;14.80;99.90;;;;;;5092300;28;20179;-85
2022/06/21 03:19:45;;;;;;;1.05;0.90;;;15.20;99.90;;;;;;5093783;28;20216;-84
2022/06/21 03:22:20;;;;;;;0.85;0.85;;;14.40;99.90;;;;;;5093158;28;20154;-85
2022/06/21 03:24:49;;;;;;;1.30;0.80;;;14.60;99.90;;;;;;5093517;28;20200;-85
2022/06/21 03:27:37;;;;;;;0.73;0.73;;;14.80;99.90;;;;;;5091943;28;20714;-85
2022/06/21 03:30:05;;;;;;;0.70;0.70;;;14.50;99.90;;;;;;5096830;28;20233;-85
2022/06/21 03:32:34;;;;;;;0.65;0.65;;;14.40;99.90;;;;;;5097674;28;20210;-88
2022/06/21 03:35:03;;;;;;;0.90;0.90;;;14.50;99.90;;;;;;5096052;28;20175;-85
2022/06/21 03:37:29;;;;;;;1.67;0.70;;;14.40;99.90;;;;;;5097360;28;20220;-87
2022/06/21 03:42:44;;;;;;;0.90;0.90;;;14.00;99.90;;;;;;5096580;28;20219;-85
2022/06/21 03:45:24;;;;;;;0.70;0.70;;;14.40;99.90;;;;;;5097180;28;20170;-85
2022/06/21 03:48:09;;;;;;;0.70;0.55;;;14.40;99.90;;;;;;5096041;28;20562;-85
2022/06/21 03:50:39;;;;;;;1.05;0.95;;;14.40;99.90;;;;;;5096212;28;20171;-85
2022/06/21 03:53:31;;;;;;;0.75;0.75;;;14.60;99.90;;;;;;5097237;28;20195;-86
2022/06/21 03:56:08;;;;;;;0.47;0.47;;;14.20;99.90;;;;;;5087795;28;20607;-87
2022/06/21 03:58:46;;;;;;;0.82;0.82;;;14.60;99.90;;;;;;5097035;28;20173;-86
2022/06/21 04:01:19;;;;;;;2.50;0.90;;;13.80;99.90;;;;;;5096888;28;20653;-86
2022/06/21 04:03:48;;;;;;;0.50;0.50;;;14.50;99.90;;;;;;5097044;28;20175;-87
2022/06/21 04:06:17;;;;;;;0.90;0.80;;;14.00;99.90;;;;;;5096814;28;20631;-85
2022/06/21 04:09:00;;;;;;;2.67;0.75;;;14.50;99.90;;;;;;5096729;28;20277;-86
2022/06/21 04:11:40;;;;;;;1.00;0.90;;;14.00;99.90;;;;;;5096997;28;20167;-86
2022/06/21 04:14:51;;;;;;;2.17;1.20;;;14.00;99.90;;;;;;5094894;28;20242;-87
2022/06/21 04:17:46;;;;;;;0.60;0.60;;;14.20;99.90;;;;;;5057139;28;20666;-86
2022/06/21 04:20:45;;;;;;;2.25;1.42;;;14.20;99.90;;;;;;5073236;28;20266;-85
2022/06/21 04:23:14;;;;;;;1.13;0.95;;;14.30;99.90;;;;;;5078582;28;20197;-86
2022/06/21 04:25:51;;;;;;;1.85;1.25;;;14.30;99.90;;;;;;5096339;28;20254;-87
2022/06/21 04:28:27;;;;;;;1.30;1.20;;;14.10;99.90;;;;;;5096269;28;20627;-86
2022/06/21 04:31:01;;;;;;;1.58;1.10;;;13.90;99.90;;;;;;5096740;28;20221;-86
2022/06/21 04:33:36;;;;;;;1.48;0.88;;;14.00;99.90;;;;;;5096099;28;20265;-86
2022/06/21 04:36:09;;;;;;;1.10;1.00;;;14.10;99.90;;;;;;5096076;28;20170;-86
2022/06/21 04:38:41;;;;;;;1.05;0.90;;;14.40;99.90;;;;;;5095225;28;20182;-86
2022/06/21 04:41:30;;;;;;;1.30;1.00;;;14.00;99.90;;;;;;5095912;28;20170;-85
2022/06/21 04:44:03;;;;;;;0.90;0.90;;;14.00;99.90;;;;;;5095565;28;20242;-86
2022/06/21 04:46:39;;;;;;;1.17;1.08;;;13.90;99.90;;;;;;5096672;28;20155;-86
2022/06/21 04:49:16;;;;;;;1.13;1.05;;;13.90;99.90;;;;;;5094659;28;20178;-87
2022/06/21 04:51:56;;;;;;;1.55;1.45;;;14.00;99.90;;;;;;5096127;28;20174;-86
2022/06/21 04:54:28;;;;;;;2.10;1.08;;;13.70;99.90;;;;;;5088301;28;20202;-86
2022/06/21 04:57:13;;;;;;;0.95;0.80;;;14.00;99.90;;;;;;5086305;28;20255;-87
2022/06/21 04:59:48;;;;;;;1.67;1.30;;;14.00;99.90;;;;;;5087879;28;20219;-86
2022/06/21 05:02:22;;;;;;;1.30;1.20;;;13.20;99.90;;;;;;5091397;28;20231;-86
2022/06/21 05:04:53;;;;;;;4.07;1.08;;;13.50;99.90;;;;;;5093549;28;20178;-87
2022/06/21 05:07:23;;;;;;;1.92;1.45;;;13.70;99.90;;;;;;5094882;28;20238;-87
2022/06/21 05:09:51;;;;;;;2.40;1.60;;;14.20;99.90;;;;;;5095062;28;20208;-87
2022/06/21 05:12:39;;;;;;;1.65;1.52;;;14.20;99.90;;;;;;5094360;28;20190;-87
2022/06/21 05:15:17;;;;;;;2.50;1.23;;;14.00;99.90;;;;;;5090095;28;20175;-86
2022/06/21 05:17:48;;;;;;;1.58;1.38;;;13.80;99.90;;;;;;5075455;28;20218;-87
2022/06/21 05:20:18;;;;;;;3.15;1.70;;;13.70;99.90;;;;;;5092952;28;20181;-87
2022/06/21 05:22:50;;;;;;;1.80;1.45;;;14.10;99.90;;;;;;5094038;28;20190;-87
2022/06/21 05:25:38;;;;;;;1.98;1.35;;;14.00;99.90;;;;;;5091010;28;20175;-87
2022/06/21 05:28:27;;;;;;;1.75;1.45;;;14.20;99.90;;;;;;5087579;28;20182;-87
2022/06/21 05:31:17;;;;;;;1.92;1.65;;;14.40;99.90;;;;;;5123014;28;20285;-88
2022/06/21 05:33:49;;;;;;;3.70;1.95;;;14.20;99.90;;;;;;5111017;28;20225;-87
2022/06/21 05:36:20;;;;;;;2.50;1.88;;;14.60;99.90;;;;;;5108003;28;20205;-88
2022/06/21 05:38:55;;;;;;;2.35;1.55;;;14.60;99.90;;;;;;5105428;28;20250;-87
2022/06/21 05:41:38;;;;;;;1.55;1.20;;;14.30;99.90;;;;;;5113912;28;20162;-87
2022/06/21 05:44:34;;;;;;;1.48;1.38;;;14.50;99.90;;;;;;5111691;28;20201;-86
2022/06/21 05:47:08;;;;;;;1.30;1.17;;;14.50;99.90;;;;;;5113003;28;20177;-87
2022/06/21 05:49:35;;;;;;;1.50;1.40;;;14.60;99.90;;;;;;5108388;28;20187;-86
2022/06/21 05:52:06;;;;;;;2.65;1.23;;;14.40;99.90;;;;;;5099085;28;20193;-86
2022/06/21 05:54:36;;;;;;;2.15;1.30;;;14.70;99.90;;;;;;5122868;28;20194;-88
2022/06/21 05:57:04;;;;;;;1.30;1.20;;;14.50;99.90;;;;;;5117931;28;20178;-88
2022/06/21 05:59:30;;;;;;;1.40;1.30;;;14.60;99.90;;;;;;5117495;28;20190;-87
2022/06/21 06:02:07;;;;;;;1.20;1.00;;;14.50;99.90;;;;;;5132114;27;20186;-87
2022/06/21 06:05:03;;;;;;;1.73;1.10;;;14.70;99.90;;;;;;5113283;28;20198;-87
2022/06/21 06:07:35;;;;;;;1.33;1.10;;;14.80;99.90;;;;;;5125591;28;20166;-86
2022/06/21 06:10:03;;;;;;;1.58;1.13;;;14.80;99.90;;;;;;5096606;28;20215;-87
2022/06/21 06:12:43;;;;;;;1.55;1.40;;;14.90;99.90;;;;;;5095681;28;20230;-85
2022/06/21 06:15:11;;;;;;;1.25;1.15;;;15.00;99.90;;;;;;5114863;28;20586;-85
2022/06/21 06:17:45;;;;;;;1.30;1.00;;;14.90;99.90;;;;;;5093560;28;20204;-85
2022/06/21 06:20:35;;;;;;;1.88;1.50;;;14.80;99.90;;;;;;5124402;27;20178;-85
2022/06/21 06:23:32;;;;;;;1.10;1.00;;;14.90;99.90;;;;;;5096578;28;20242;-86
2022/06/21 06:26:05;;;;;;;1.58;1.20;;;14.80;99.90;;;;;;5113666;28;20224;-85
2022/06/21 06:28:50;;;;;;;1.48;1.30;;;15.10;99.90;;;;;;5111537;28;20701;-85
2022/06/21 06:31:32;;;;;;;1.25;1.10;;;15.30;99.90;;;;;;5108505;28;20690;-86
2022/06/21 06:34:08;;;;;;;1.33;1.23;;;15.90;99.90;;;;;;5096403;28;20190;-86
2022/06/21 06:37:14;;;;;;;1.10;1.00;;;15.80;99.90;;;;;;5092679;28;20265;-85
2022/06/21 06:39:40;;;;;;;1.08;0.90;;;15.80;99.90;;;;;;5098021;28;20182;-85
2022/06/21 06:42:18;;;;;;;1.05;0.95;;;15.80;99.90;;;;;;5091471;28;20261;-86
2022/06/21 06:45:03;;;;;;;1.10;1.00;;;15.50;99.90;;;;;;5092992;28;20185;-85
2022/06/21 06:47:43;;;;;;;0.88;0.63;;;15.40;99.90;;;;;;5107860;28;20601;-86
2022/06/21 06:50:23;;;;;;;5.00;1.30;;;15.30;99.90;;;;;;5091449;28;20181;-86
2022/06/21 06:52:59;;;;;;;1.58;1.48;;;15.40;99.90;;;;;;5087354;28;20194;-85
2022/06/21 06:55:39;;;;;;;1.30;1.20;;;15.40;99.90;;;;;;5090600;28;20257;-86
2022/06/21 06:58:20;;;;;;;1.52;1.40;;;15.40;99.90;;;;;;5108642;28;20251;-85
2022/06/21 07:00:51;;;;;;;0.93;0.90;;;15.30;99.90;;;;;;5092338;28;20203;-85
2022/06/21 07:03:24;;;;;;;0.80;0.80;;;15.40;99.90;;;;;;5081885;28;20183;-85
2022/06/21 07:06:13;;;;;;;1.27;1.17;;;15.60;99.90;;;;;;5089891;28;20655;-86
2022/06/21 07:08:43;;;;;;;1.75;1.30;;;15.40;99.90;;;;;;5081301;28;20182;-86
2022/06/21 07:11:24;;;;;;;1.20;1.10;;;15.60;99.90;;;;;;5091825;28;20175;-84
2022/06/21 07:13:50;;;;;;;1.45;1.27;;;15.80;99.90;;;;;;5092247;28;20202;-86
2022/06/21 07:16:22;;;;;;;2.75;1.25;;;15.50;99.90;;;;;;5092017;28;20193;-85
2022/06/21 07:18:50;;;;;;;1.25;1.15;;;15.60;99.90;;;;;;5099037;28;20175;-84
2022/06/21 07:21:17;;;;;;;1.35;1.25;;;15.40;99.90;;;;;;5087992;28;20175;-85
2022/06/21 07:23:44;;;;;;;3.72;1.20;;;15.70;99.90;;;;;;5071840;28;20707;-84
2022/06/21 07:26:33;;;;;;;1.05;1.02;;;15.60;99.90;;;;;;5072845;28;20186;-85
2022/06/21 07:29:17;;;;;;;2.30;1.15;;;16.20;99.90;;;;;;5071879;28;20317;-84
2022/06/21 07:31:47;;;;;;;1.23;1.13;;;15.90;99.90;;;;;;5073002;28;20643;-85
2022/06/21 07:34:42;;;;;;;1.55;1.10;;;16.00;99.90;;;;;;5073011;28;20656;-84
2022/06/21 07:37:16;;;;;;;0.93;0.90;;;16.10;99.90;;;;;;5073255;28;20171;-85
2022/06/21 07:40:08;;;;;;;1.00;1.00;;;16.10;99.90;;;;;;5072827;28;20181;-85
2022/06/21 07:43:07;;;;;;;0.80;0.80;;;16.30;99.90;;;;;;5071469;28;20183;-85
2022/06/21 07:45:43;;;;;;;0.88;0.88;;;16.20;99.90;;;;;;5067629;28;20232;-84
2022/06/21 07:48:18;;;;;;;1.52;1.20;;;15.60;99.90;;;;;;5085965;28;20175;-85
2022/06/21 07:50:51;;;;;;;1.02;0.77;;;15.90;99.90;;;;;;5075158;28;20224;-84
2022/06/21 07:53:39;;;;;;;3.45;0.80;;;16.40;99.90;;;;;;5072548;28;20565;-85
2022/06/21 07:56:27;;;;;;;2.88;0.57;;;16.20;99.90;;;;;;5072973;28;20267;-84
2022/06/21 07:59:00;;;;;;;1.42;0.90;;;16.80;99.90;;;;;;5072575;28;20175;-85
2022/06/21 08:07:30;;;;;;;0.98;0.90;;;16.70;99.90;;;;;;5072891;28;20169;-84
2022/06/21 08:10:20;;;;;;;0.63;0.63;;;16.90;99.90;;;;;;5072751;28;20179;-84
2022/06/21 08:12:47;;;;;;;1.25;1.15;;;16.20;99.90;;;;;;5074008;28;20213;-85
2022/06/21 08:15:13;;;;;;;0.70;0.70;;;16.50;99.90;;;;;;5077710;28;20274;-84
2022/06/21 08:17:50;;;;;;;0.70;0.70;;;16.30;99.90;;;;;;5114341;28;20183;-84
2022/06/21 08:20:31;;;;;;;1.00;0.60;;;16.10;99.90;;;;;;5092995;28;20172;-84
2022/06/21 08:23:23;;;;;;;1.08;0.70;;;15.90;99.90;;;;;;5111473;28;20198;-83
2022/06/21 08:26:00;;;;;;;0.60;0.60;;;15.60;99.90;;;;;;5080716;28;20246;-85
2022/06/21 08:28:39;;;;;;;0.70;0.70;;;15.30;99.90;;;;;;5075240;28;20280;-85
2022/06/21 08:31:14;;;;;;;0.90;0.80;;;15.30;99.90;;;;;;5076663;28;20238;-85
2022/06/21 08:33:47;;;;;;;2.30;0.85;;;15.50;99.90;;;;;;5074599;28;20244;-85
2022/06/21 08:36:17;;;;;;;2.20;0.93;;;15.60;99.90;;;;;;5075087;28;20171;-86
2022/06/21 08:38:52;;;;;;;10.15;0.85;;;16.10;99.90;;;;;;5074658;28;20175;-85
2022/06/21 08:41:57;;;;;;;0.70;0.70;;;16.20;99.90;;;;;;5074974;28;20312;-84
2022/06/21 08:44:41;;;;;;;1.67;1.15;;;16.10;99.90;;;;;;5076532;28;20186;-84
2022/06/21 08:47:39;;;;;;;0.88;0.88;;;15.70;99.90;;;;;;5074895;28;20233;-84
2022/06/21 08:50:28;;;;;;;0.60;0.60;;;15.30;99.90;;;;;;5075927;28;20175;-84
2022/06/21 08:53:17;;;;;;;0.52;0.52;;;15.20;99.90;;;;;;5075638;28;20205;-85
2022/06/21 08:56:10;;;;;;;0.60;0.60;;;15.50;99.90;;;;;;5064049;28;20191;-84
2022/06/21 08:58:57;;;;;;;1.08;0.98;;;16.50;99.90;;;;;;5075765;28;20171;-84
2022/06/21 09:02:19;;;;;;;1.88;1.15;;;16.10;99.90;;;;;;5075383;28;20183;-84
2022/06/21 09:05:15;;;;;;;0.80;0.68;;;16.70;99.90;;;;;;5053097;28;20186;-84
2022/06/21 09:07:41;;;;;;;1.27;0.70;;;16.40;99.90;;;;;;5052978;28;20233;-85
2022/06/21 09:10:18;;;;;;;0.95;0.80;;;16.50;99.90;;;;;;5070613;28;20500;-84
2022/06/21 09:13:06;;;;;;;1.20;0.80;;;16.70;99.90;;;;;;5091227;28;20674;-84
2022/06/21 09:16:09;;;;;;;0.80;0.80;;;17.00;99.90;;;;;;5075369;28;20166;-86
2022/06/21 09:18:57;;;;;;;1.00;0.80;;;16.90;99.90;;;;;;5074539;28;20182;-85
2022/06/21 09:21:35;;;;;;;0.60;0.60;;;17.10;99.90;;;;;;5091456;28;20179;-85
2022/06/21 09:24:06;;;;;;;0.65;0.57;;;16.70;99.90;;;;;;5075074;28;20436;-86
2022/06/21 09:27:09;;;;;;;0.82;0.80;;;16.40;99.90;;;;;;5074177;28;20172;-83
2022/06/21 09:29:53;;;;;;;1.88;0.60;;;16.30;99.90;;;;;;5052369;28;20326;-84
2022/06/21 09:32:27;;;;;;;1.20;0.60;;;16.70;99.90;;;;;;5058358;28;20191;-84
2022/06/21 09:35:32;;;;;;;0.85;0.85;;;16.70;99.90;;;;;;5074503;28;20220;-84
2022/06/21 09:38:10;;;;;;;0.60;0.60;;;16.80;99.90;;;;;;5070353;28;20191;-84
2022/06/21 09:40:49;;;;;;;0.95;0.77;;;17.10;99.90;;;;;;5075191;28;20213;-85
2022/06/21 09:43:41;;;;;;;0.73;0.70;;;17.00;99.90;;;;;;5075155;28;20164;-84
2022/06/21 09:46:18;;;;;;;0.60;0.60;;;17.30;99.90;;;;;;5074311;28;20187;-85
2022/06/21 09:49:04;;;;;;;0.63;0.63;;;17.30;99.50;;;;;;5090353;28;20221;-84
2022/06/21 09:51:39;;;;;;;0.75;0.57;;;17.50;99.10;;;;;;5074726;28;20163;-85
2022/06/21 09:54:34;;;;;;;1.75;0.60;;;17.40;99.90;;;;;;5090214;28;20249;-85
2022/06/21 09:57:32;;;;;;;0.73;0.73;;;17.20;99.30;;;;;;5073128;28;20607;-84
2022/06/21 10:00:16;;;;;;;0.70;0.70;;;16.80;99.90;;;;;;5074363;28;20160;-83
2022/06/21 10:02:54;;;;;;;1.92;0.93;;;16.50;99.90;;;;;;5074395;28;20605;-84
2022/06/21 10:05:26;;;;;;;0.60;0.60;;;16.20;99.90;;;;;;5073144;28;20577;-84
2022/06/21 10:08:19;;;;;;;0.82;0.70;;;16.10;99.90;;;;;;5073791;28;20163;-84
2022/06/21 10:11:12;;;;;;;0.80;0.80;;;16.10;99.90;;;;;;5073290;28;20171;-84
2022/06/21 10:14:02;;;;;;;0.60;0.60;;;16.00;99.90;;;;;;5074167;28;20206;-83
2022/06/21 10:16:36;;;;;;;0.73;0.70;;;15.90;99.90;;;;;;5074419;28;20237;-85
2022/06/21 10:19:28;;;;;;;1.27;0.85;;;16.00;99.90;;;;;;5073669;28;20178;-84
2022/06/21 10:22:03;;;;;;;0.70;0.68;;;16.30;99.90;;;;;;5072688;28;20185;-84
2022/06/21 10:24:47;;;;;;;1.60;0.95;;;16.50;99.90;;;;;;5074222;28;20643;-85
2022/06/21 10:27:38;;;;;;;0.90;0.60;;;16.60;99.90;;;;;;5074002;28;20617;-83
2022/06/21 10:30:10;;;;;;;0.60;0.60;;;16.70;99.90;;;;;;5073765;28;20230;-83
2022/06/21 10:32:49;;;;;;;1.05;0.93;;;16.50;99.90;;;;;;5072781;28;20172;-85
2022/06/21 10:35:59;;;;;;;0.68;0.68;;;16.40;99.90;;;;;;5073828;28;20225;-84
2022/06/21 10:38:49;;;;;;;0.93;0.70;;;16.30;99.90;;;;;;5051484;28;20312;-83
2022/06/21 10:41:33;;;;;;;1.48;1.05;;;16.30;99.90;;;;;;5072497;28;20190;-84
2022/06/21 10:44:16;;;;;;;0.68;0.68;;;16.20;99.90;;;;;;5073750;28;20175;-85
2022/06/21 10:46:49;;;;;;;0.60;0.60;;;16.30;99.90;;;;;;5072106;28;20213;-84
2022/06/21 10:49:20;;;;;;;0.70;0.70;;;16.20;99.90;;;;;;5073491;28;20163;-84
2022/06/21 10:52:28;;;;;;;3.10;1.00;;;16.10;99.90;;;;;;5073639;28;20175;-83
2022/06/21 10:55:20;;;;;;;0.73;0.73;;;16.00;99.90;;;;;;5060679;28;20194;-88
2022/06/21 10:58:11;;;;;;;0.80;0.80;;;15.90;99.90;;;;;;5074076;28;20175;-83
2022/06/21 11:04:12;;;;;;;4.78;0.70;;;16.10;99.90;;;;;;5053125;28;20196;-83
2022/06/21 11:06:56;;;;;;;0.80;0.80;;;16.10;99.90;;;;;;5054176;28;20245;-84
2022/06/21 11:09:40;;;;;;;0.60;0.60;;;15.90;99.90;;;;;;5070053;28;20195;-83
2022/06/21 11:12:55;;;;;;;4.65;0.68;;;15.90;99.90;;;;;;5076085;28;20651;-84
2022/06/21 11:15:43;;;;;;;1.00;0.90;;;16.00;99.90;;;;;;5090447;28;20195;-84
2022/06/21 11:18:08;;;;;;;1.08;0.98;;;16.10;99.90;;;;;;5076209;28;20177;-84
2022/06/21 11:21:01;;;;;;;1.92;1.38;;;16.30;99.90;;;;;;5078077;28;20250;-83
2022/06/21 11:23:37;;;;;;;0.60;0.60;;;16.50;99.90;;;;;;5092368;28;20233;-84
2022/06/21 11:26:29;;;;;;;0.80;0.70;;;16.80;99.90;;;;;;5073699;28;20174;-85
2022/06/21 11:29:13;;;;;;;0.80;0.80;;;17.00;99.90;;;;;;5073069;28;20179;-84
2022/06/21 11:32:05;;;;;;;0.70;0.70;;;16.90;99.90;;;;;;5073197;28;20199;-84
2022/06/21 11:34:56;;;;;;;0.60;0.60;;;16.60;99.90;;;;;;5071263;28;20229;-84
2022/06/21 11:37:38;;;;;;;0.80;0.80;;;16.30;99.90;;;;;;5072622;28;20190;-84
2022/06/21 11:40:04;;;;;;;0.77;0.77;;;15.10;99.90;;;;;;5071656;28;20266;-83
2022/06/21 11:42:49;;;;;;;0.57;0.57;;;15.00;99.90;;;;;;5073878;28;20179;-83
2022/06/21 11:45:30;;;;;;;0.88;0.82;;;14.60;99.90;;;;;;5075242;28;20217;-83
2022/06/21 11:48:05;;;;;;;0.70;0.60;;;14.30;99.90;;;;;;5075599;28;20554;-82
2022/06/21 11:51:01;;;;;;;0.93;0.80;;;14.20;99.90;;;;;;5080868;28;20505;-84
2022/06/21 11:53:39;;;;;;;0.82;0.77;;;14.20;99.90;;;;;;5117819;28;20218;-84
2022/06/21 11:56:59;;;;;;;0.50;0.50;;;14.50;99.90;;;;;;5101246;28;20250;-88
2022/06/21 11:59:40;;;;;;;0.50;0.50;;;14.50;99.90;;;;;;5080218;28;20191;-84
2022/06/21 12:02:20;;;;;;;0.73;0.73;;;14.50;99.90;;;;;;5081476;28;20191;-86
2022/06/21 12:05:08;;;;;;;1.23;0.80;;;14.80;99.90;;;;;;5083583;28;20190;-83
2022/06/21 12:07:57;;;;;;;0.80;0.80;;;15.30;99.90;;;;;;5100628;28;20179;-83
2022/06/21 12:10:46;;;;;;;0.90;0.73;;;16.00;99.90;;;;;;5101033;28;20202;-84
2022/06/21 12:13:51;;;;;;;0.70;0.70;;;16.00;99.90;;;;;;5094727;28;20195;-84
2022/06/21 12:16:31;;;;;;;2.25;1.13;;;15.50;99.90;;;;;;5068731;28;20187;-83
2022/06/21 12:19:16;;;;;;;0.60;0.60;;;15.70;99.90;;;;;;5078392;28;20165;-84
2022/06/21 12:21:50;;;;;;;1.23;0.80;;;15.80;99.90;;;;;;5078469;28;20166;-83
2022/06/21 12:24:23;;;;;;;0.82;0.82;;;15.90;99.90;;;;;;5076138;28;20610;-84
2022/06/21 12:26:48;;;;;;;1.15;0.80;;;16.00;99.90;;;;;;5077947;28;20167;-84
2022/06/21 12:29:19;;;;;;;1.30;0.98;;;15.80;99.90;;;;;;5076995;28;20183;-85
2022/06/21 12:31:49;;;;;;;0.60;0.60;;;15.70;99.90;;;;;;5060337;28;20659;-84
2022/06/21 12:34:26;;;;;;;3.45;1.38;;;15.80;99.90;;;;;;5078750;28;20210;-84
2022/06/21 12:37:00;;;;;;;0.88;0.70;;;16.10;99.90;;;;;;5077492;28;20171;-84
2022/06/21 12:39:54;;;;;;;0.77;0.77;;;15.90;99.90;;;;;;5077108;28;20167;-85
2022/06/21 12:42:34;;;;;;;0.88;0.65;;;16.00;99.90;;;;;;5091950;28;20175;-84
2022/06/21 12:45:17;;;;;;;0.65;0.65;;;16.10;99.90;;;;;;5076634;28;20172;-84
2022/06/21 12:48:04;;;;;;;0.77;0.77;;;16.00;99.90;;;;;;5076349;28;20159;-83
2022/06/21 12:50:46;;;;;;;1.27;1.17;;;15.90;99.90;;;;;;5091499;28;20183;-83
2022/06/21 12:53:36;;;;;;;1.35;0.98;;;15.90;99.90;;;;;;5075720;28;20194;-84
2022/06/21 12:56:26;;;;;;;0.80;0.80;;;15.80;99.90;;;;;;5076257;28;20179;-83
2022/06/21 12:59:20;;;;;;;0.90;0.80;;;15.80;99.90;;;;;;5074563;28;20179;-85
2022/06/21 13:01:59;;;;;;;0.93;0.93;;;15.70;99.90;;;;;;5074515;28;20175;-83
2022/06/21 13:04:49;;;;;;;1.02;0.90;;;15.70;99.90;;;;;;5075403;28;20167;-84
2022/06/21 13:07:28;;;;;;;1.45;0.90;;;15.80;99.90;;;;;;5075471;28;20214;-84
2022/06/21 13:09:56;;;;;;;1.02;0.93;;;15.90;99.90;;;;;;5075668;28;20171;-84
2022/06/21 13:12:48;;;;;;;0.80;0.80;;;15.90;99.90;;;;;;5073869;28;20176;-85
2022/06/21 13:15:35;;;;;;;2.45;1.33;;;15.90;99.90;;;;;;5074445;28;20194;-83
2022/06/21 13:18:03;;;;;;;0.80;0.80;;;15.70;99.90;;;;;;5091383;28;20171;-85
2022/06/21 13:20:54;;;;;;;0.88;0.80;;;15.80;99.90;;;;;;5075316;28;20175;-84
2022/06/21 13:23:51;;;;;;;1.00;0.95;;;16.00;99.90;;;;;;5075577;28;20170;-86
2022/06/21 13:26:44;;;;;;;1.10;1.00;;;16.30;99.90;;;;;;5059433;28;20217;-87
2022/06/21 13:29:38;;;;;;;1.13;0.73;;;16.70;99.90;;;;;;5075284;28;20640;-86
2022/06/21 13:32:17;;;;;;;1.70;0.73;;;17.10;99.90;;;;;;5075834;28;20171;-85
2022/06/21 13:34:48;;;;;;;1.20;0.85;;;17.00;99.90;;;;;;5074075;28;20203;-84
2022/06/21 13:37:44;;;;;;;0.65;0.63;;;17.10;99.90;;;;;;5074235;28;20259;-83
2022/06/21 13:40:18;;;;;;;0.50;0.50;;;17.00;99.90;;;;;;5074322;28;20191;-83
2022/06/21 13:43:02;;;;;;;0.50;0.50;;;17.10;99.90;;;;;;5074694;28;20179;-83
2022/06/21 13:45:39;;;;;;;1.55;0.47;;;17.20;99.90;;;;;;5074917;28;20163;-83
2022/06/21 13:48:26;;;;;;;0.57;0.40;;;17.40;99.90;;;;;;5075896;28;20604;-83
2022/06/21 13:51:13;;;;;;;0.75;0.60;;;17.60;99.90;;;;;;5075517;28;20171;-83
2022/06/21 13:53:56;;;;;;;0.88;0.55;;;17.80;99.90;;;;;;5090649;28;20210;-84
2022/06/21 13:56:33;;;;;;;0.80;0.50;;;17.90;99.90;;;;;;5075372;28;20171;-84
2022/06/21 13:59:06;;;;;;;3.08;0.60;;;17.80;99.90;;;;;;5075315;28;20166;-82
2022/06/21 14:02:00;;;;;;;1.02;0.65;;;17.50;99.90;;;;;;5074822;28;20168;-82
2022/06/21 14:04:44;;;;;;;0.77;0.60;;;17.30;99.90;;;;;;5074694;28;20167;-83